sensor_id;sensor_type;location;lat;lon;timestamp;pressure;altitude;pressure_sealevel;temperature
19040;BMP180;9652;49.014;12.052;2023-04-24T00:01:10;96870.00;;;15.00
19040;BMP180;9652;49.014;12.052;2023-04-24T00:03:40;96875.00;;;15.00
19040;BMP180;9652;49.014;12.052;2023-04-24T00:06:07;96871.00;;;15.00
19040;BMP180;9652;49.014;12.052;2023-04-24T00:08:34;96870.00;;;15.00
19040;BMP180;9652;49.014;12.052;2023-04-24T00:11:01;96855.00;;;15.00
19040;BMP180;9652;49.014;12.052;2023-04-24T00:13:28;96859.00;;;15.00
19040;BMP180;9652;49.014;12.052;2023-04-24T00:15:56;96855.00;;;15.00
19040;BMP180;9652;49.014;12.052;2023-04-24T00:18:23;96866.00;;;14.90
19040;BMP180;9652;49.014;12.052;2023-04-24T00:20:51;96850.00;;;14.90
19040;BMP180;9652;49.014;12.052;2023-04-24T00:23:18;96847.00;;;14.90
19040;BMP180;9652;49.014;12.052;2023-04-24T00:25:45;96844.00;;;14.90
19040;BMP180;9652;49.014;12.052;2023-04-24T00:28:12;96846.00;;;14.90
19040;BMP180;9652;49.014;12.052;2023-04-24T00:30:40;96839.00;;;14.90
19040;BMP180;9652;49.014;12.052;2023-04-24T00:33:07;96831.00;;;14.90
19040;BMP180;9652;49.014;12.052;2023-04-24T00:35:34;96840.00;;;14.90
19040;BMP180;9652;49.014;12.052;2023-04-24T00:38:03;96842.00;;;14.90
19040;BMP180;9652;49.014;12.052;2023-04-24T00:40:30;96847.00;;;14.90
19040;BMP180;9652;49.014;12.052;2023-04-24T00:42:57;96850.00;;;14.90
19040;BMP180;9652;49.014;12.052;2023-04-24T00:45:25;96845.00;;;14.90
19040;BMP180;9652;49.014;12.052;2023-04-24T00:47:53;96841.00;;;14.90
19040;BMP180;9652;49.014;12.052;2023-04-24T00:50:21;96843.00;;;14.90
19040;BMP180;9652;49.014;12.052;2023-04-24T00:52:48;96846.00;;;15.00
19040;BMP180;9652;49.014;12.052;2023-04-24T00:55:17;96850.00;;;14.90
19040;BMP180;9652;49.014;12.052;2023-04-24T00:57:45;96844.00;;;15.00
19040;BMP180;9652;49.014;12.052;2023-04-24T01:00:13;96849.00;;;14.90
19040;BMP180;9652;49.014;12.052;2023-04-24T01:02:44;96841.00;;;15.00
19040;BMP180;9652;49.014;12.052;2023-04-24T01:05:11;96834.00;;;14.90
19040;BMP180;9652;49.014;12.052;2023-04-24T01:07:40;96845.00;;;14.90
19040;BMP180;9652;49.014;12.052;2023-04-24T01:10:10;96843.00;;;14.90
19040;BMP180;9652;49.014;12.052;2023-04-24T01:12:39;96846.00;;;14.90
19040;BMP180;9652;49.014;12.052;2023-04-24T01:15:08;96841.00;;;14.90
19040;BMP180;9652;49.014;12.052;2023-04-24T01:17:35;96822.00;;;14.90
19040;BMP180;9652;49.014;12.052;2023-04-24T01:20:03;96835.00;;;14.90
19040;BMP180;9652;49.014;12.052;2023-04-24T01:22:33;96852.00;;;14.90
19040;BMP180;9652;49.014;12.052;2023-04-24T01:25:01;96845.00;;;14.90
19040;BMP180;9652;49.014;12.052;2023-04-24T01:27:30;96839.00;;;14.40
19040;BMP180;9652;49.014;12.052;2023-04-24T01:29:57;96838.00;;;14.90
19040;BMP180;9652;49.014;12.052;2023-04-24T01:32:24;96840.00;;;14.90
19040;BMP180;9652;49.014;12.052;2023-04-24T01:34:52;96866.00;;;14.90
19040;BMP180;9652;49.014;12.052;2023-04-24T01:37:19;96847.00;;;14.80
19040;BMP180;9652;49.014;12.052;2023-04-24T01:39:47;96843.00;;;14.90
19040;BMP180;9652;49.014;12.052;2023-04-24T01:42:14;96842.00;;;14.90
19040;BMP180;9652;49.014;12.052;2023-04-24T01:44:43;96841.00;;;14.90
19040;BMP180;9652;49.014;12.052;2023-04-24T01:47:10;96828.00;;;14.90
19040;BMP180;9652;49.014;12.052;2023-04-24T01:49:38;96837.00;;;14.90
19040;BMP180;9652;49.014;12.052;2023-04-24T01:52:06;96842.00;;;14.90
19040;BMP180;9652;49.014;12.052;2023-04-24T01:54:33;96839.00;;;14.90
19040;BMP180;9652;49.014;12.052;2023-04-24T01:57:03;96828.00;;;14.80
19040;BMP180;9652;49.014;12.052;2023-04-24T01:59:31;96836.00;;;14.80
19040;BMP180;9652;49.014;12.052;2023-04-24T02:02:00;96833.00;;;14.80
19040;BMP180;9652;49.014;12.052;2023-04-24T02:04:27;96828.00;;;14.80
19040;BMP180;9652;49.014;12.052;2023-04-24T02:06:54;96825.00;;;14.80
19040;BMP180;9652;49.014;12.052;2023-04-24T02:09:21;96817.00;;;14.80
19040;BMP180;9652;49.014;12.052;2023-04-24T02:11:48;96825.00;;;14.80
19040;BMP180;9652;49.014;12.052;2023-04-24T02:14:17;96822.00;;;14.80
19040;BMP180;9652;49.014;12.052;2023-04-24T02:16:44;96818.00;;;14.80
19040;BMP180;9652;49.014;12.052;2023-04-24T02:19:11;96813.00;;;14.70
19040;BMP180;9652;49.014;12.052;2023-04-24T02:21:38;96813.00;;;14.70
19040;BMP180;9652;49.014;12.052;2023-04-24T02:24:08;96821.00;;;14.70
19040;BMP180;9652;49.014;12.052;2023-04-24T02:26:35;96816.00;;;14.70
19040;BMP180;9652;49.014;12.052;2023-04-24T02:29:02;96808.00;;;14.70
19040;BMP180;9652;49.014;12.052;2023-04-24T02:31:30;96803.00;;;14.70
19040;BMP180;9652;49.014;12.052;2023-04-24T02:33:57;96811.00;;;14.70
19040;BMP180;9652;49.014;12.052;2023-04-24T02:36:24;96800.00;;;14.70
19040;BMP180;9652;49.014;12.052;2023-04-24T02:38:51;96799.00;;;14.70
19040;BMP180;9652;49.014;12.052;2023-04-24T02:41:18;96798.00;;;14.70
19040;BMP180;9652;49.014;12.052;2023-04-24T02:43:46;96797.00;;;14.70
19040;BMP180;9652;49.014;12.052;2023-04-24T02:46:13;96796.00;;;14.70
19040;BMP180;9652;49.014;12.052;2023-04-24T02:48:41;96788.00;;;14.70
19040;BMP180;9652;49.014;12.052;2023-04-24T02:51:08;96791.00;;;14.70
19040;BMP180;9652;49.014;12.052;2023-04-24T02:53:35;96797.00;;;14.70
19040;BMP180;9652;49.014;12.052;2023-04-24T02:56:03;96787.00;;;14.70
19040;BMP180;9652;49.014;12.052;2023-04-24T02:58:30;96789.00;;;14.70
19040;BMP180;9652;49.014;12.052;2023-04-24T03:00:57;96791.00;;;14.70
19040;BMP180;9652;49.014;12.052;2023-04-24T03:03:24;96778.00;;;14.70
19040;BMP180;9652;49.014;12.052;2023-04-24T03:05:53;96789.00;;;14.70
19040;BMP180;9652;49.014;12.052;2023-04-24T03:08:21;96794.00;;;14.70
19040;BMP180;9652;49.014;12.052;2023-04-24T03:10:48;96789.00;;;14.70
19040;BMP180;9652;49.014;12.052;2023-04-24T03:13:16;96776.00;;;14.70
19040;BMP180;9652;49.014;12.052;2023-04-24T03:15:43;96775.00;;;14.60
19040;BMP180;9652;49.014;12.052;2023-04-24T03:18:10;96780.00;;;14.70
19040;BMP180;9652;49.014;12.052;2023-04-24T03:20:37;96773.00;;;14.60
19040;BMP180;9652;49.014;12.052;2023-04-24T03:23:06;96792.00;;;14.60
19040;BMP180;9652;49.014;12.052;2023-04-24T03:25:34;96781.00;;;14.60
19040;BMP180;9652;49.014;12.052;2023-04-24T03:28:01;96784.00;;;14.60
19040;BMP180;9652;49.014;12.052;2023-04-24T03:30:39;96786.00;;;14.60
19040;BMP180;9652;49.014;12.052;2023-04-24T03:33:07;96791.00;;;14.50
19040;BMP180;9652;49.014;12.052;2023-04-24T03:35:38;96789.00;;;14.50
19040;BMP180;9652;49.014;12.052;2023-04-24T03:38:10;96783.00;;;14.50
19040;BMP180;9652;49.014;12.052;2023-04-24T03:40:55;96791.00;;;14.50
19040;BMP180;9652;49.014;12.052;2023-04-24T03:43:57;96800.00;;;14.10
19040;BMP180;9652;49.014;12.052;2023-04-24T03:46:24;96795.00;;;14.40
19040;BMP180;9652;49.014;12.052;2023-04-24T03:48:56;96806.00;;;14.40
19040;BMP180;9652;49.014;12.052;2023-04-24T03:51:27;96801.00;;;14.40
19040;BMP180;9652;49.014;12.052;2023-04-24T03:54:03;96806.00;;;14.40
19040;BMP180;9652;49.014;12.052;2023-04-24T03:56:33;96800.00;;;14.30
19040;BMP180;9652;49.014;12.052;2023-04-24T03:59:01;96794.00;;;14.30
19040;BMP180;9652;49.014;12.052;2023-04-24T04:01:29;96805.00;;;14.30
19040;BMP180;9652;49.014;12.052;2023-04-24T04:04:07;96803.00;;;14.20
19040;BMP180;9652;49.014;12.052;2023-04-24T04:06:36;96798.00;;;14.20
19040;BMP180;9652;49.014;12.052;2023-04-24T04:09:05;96804.00;;;14.20
19040;BMP180;9652;49.014;12.052;2023-04-24T04:11:33;96785.00;;;14.20
19040;BMP180;9652;49.014;12.052;2023-04-24T04:14:01;96807.00;;;14.20
19040;BMP180;9652;49.014;12.052;2023-04-24T04:16:28;96799.00;;;14.20
19040;BMP180;9652;49.014;12.052;2023-04-24T04:19:01;96802.00;;;14.10
19040;BMP180;9652;49.014;12.052;2023-04-24T04:21:29;96778.00;;;14.10
19040;BMP180;9652;49.014;12.052;2023-04-24T04:24:10;96798.00;;;14.10
19040;BMP180;9652;49.014;12.052;2023-04-24T04:26:41;96802.00;;;14.10
19040;BMP180;9652;49.014;12.052;2023-04-24T04:29:18;96808.00;;;14.10
19040;BMP180;9652;49.014;12.052;2023-04-24T04:31:47;96803.00;;;14.20
19040;BMP180;9652;49.014;12.052;2023-04-24T04:34:14;96796.00;;;14.10
19040;BMP180;9652;49.014;12.052;2023-04-24T04:36:42;96796.00;;;14.10
19040;BMP180;9652;49.014;12.052;2023-04-24T04:39:31;96806.00;;;14.10
19040;BMP180;9652;49.014;12.052;2023-04-24T04:42:02;96805.00;;;14.20
19040;BMP180;9652;49.014;12.052;2023-04-24T04:44:41;96810.00;;;14.10
19040;BMP180;9652;49.014;12.052;2023-04-24T04:47:12;96811.00;;;14.10
19040;BMP180;9652;49.014;12.052;2023-04-24T04:49:41;96805.00;;;14.10
19040;BMP180;9652;49.014;12.052;2023-04-24T04:52:15;96811.00;;;14.10
19040;BMP180;9652;49.014;12.052;2023-04-24T04:54:46;96801.00;;;14.10
19040;BMP180;9652;49.014;12.052;2023-04-24T04:57:13;96809.00;;;14.10
19040;BMP180;9652;49.014;12.052;2023-04-24T04:59:40;96800.00;;;14.10
19040;BMP180;9652;49.014;12.052;2023-04-24T05:02:14;96811.00;;;14.10
19040;BMP180;9652;49.014;12.052;2023-04-24T05:04:41;96797.00;;;14.10
19040;BMP180;9652;49.014;12.052;2023-04-24T05:07:08;96812.00;;;14.10
19040;BMP180;9652;49.014;12.052;2023-04-24T05:09:39;96806.00;;;14.10
19040;BMP180;9652;49.014;12.052;2023-04-24T05:12:07;96787.00;;;14.10
19040;BMP180;9652;49.014;12.052;2023-04-24T05:14:42;96818.00;;;14.20
19040;BMP180;9652;49.014;12.052;2023-04-24T05:17:11;96824.00;;;14.20
19040;BMP180;9652;49.014;12.052;2023-04-24T05:19:38;96816.00;;;14.20
19040;BMP180;9652;49.014;12.052;2023-04-24T05:22:06;96820.00;;;14.20
19040;BMP180;9652;49.014;12.052;2023-04-24T05:24:41;96832.00;;;14.20
19040;BMP180;9652;49.014;12.052;2023-04-24T05:27:36;96825.00;;;14.20
19040;BMP180;9652;49.014;12.052;2023-04-24T05:30:09;96835.00;;;14.30
19040;BMP180;9652;49.014;12.052;2023-04-24T05:32:36;96830.00;;;14.30
19040;BMP180;9652;49.014;12.052;2023-04-24T05:35:05;96839.00;;;14.30
19040;BMP180;9652;49.014;12.052;2023-04-24T05:37:32;96812.00;;;14.30
19040;BMP180;9652;49.014;12.052;2023-04-24T05:40:00;96840.00;;;14.30
19040;BMP180;9652;49.014;12.052;2023-04-24T05:42:27;96841.00;;;14.40
19040;BMP180;9652;49.014;12.052;2023-04-24T05:44:55;96844.00;;;14.40
19040;BMP180;9652;49.014;12.052;2023-04-24T05:47:22;96844.00;;;14.40
19040;BMP180;9652;49.014;12.052;2023-04-24T05:49:51;96845.00;;;14.40
19040;BMP180;9652;49.014;12.052;2023-04-24T05:52:18;96849.00;;;14.50
19040;BMP180;9652;49.014;12.052;2023-04-24T05:54:45;96848.00;;;14.50
19040;BMP180;9652;49.014;12.052;2023-04-24T05:57:18;96842.00;;;14.50
19040;BMP180;9652;49.014;12.052;2023-04-24T05:59:52;96836.00;;;14.50
19040;BMP180;9652;49.014;12.052;2023-04-24T06:02:22;96846.00;;;14.60
19040;BMP180;9652;49.014;12.052;2023-04-24T06:04:50;96838.00;;;14.60
19040;BMP180;9652;49.014;12.052;2023-04-24T06:07:17;96845.00;;;14.60
19040;BMP180;9652;49.014;12.052;2023-04-24T06:09:44;96854.00;;;14.70
19040;BMP180;9652;49.014;12.052;2023-04-24T06:12:12;96846.00;;;14.80
19040;BMP180;9652;49.014;12.052;2023-04-24T06:14:59;96853.00;;;14.80
19040;BMP180;9652;49.014;12.052;2023-04-24T06:17:48;96856.00;;;14.90
19040;BMP180;9652;49.014;12.052;2023-04-24T06:20:17;96801.00;;;14.90
19040;BMP180;9652;49.014;12.052;2023-04-24T06:22:44;96841.00;;;15.00
19040;BMP180;9652;49.014;12.052;2023-04-24T06:25:11;96853.00;;;15.00
19040;BMP180;9652;49.014;12.052;2023-04-24T06:27:38;96855.00;;;15.00
19040;BMP180;9652;49.014;12.052;2023-04-24T06:30:09;96862.00;;;15.10
19040;BMP180;9652;49.014;12.052;2023-04-24T06:32:36;96860.00;;;15.10
19040;BMP180;9652;49.014;12.052;2023-04-24T06:35:06;96858.00;;;15.20
19040;BMP180;9652;49.014;12.052;2023-04-24T06:37:35;96859.00;;;15.30
19040;BMP180;9652;49.014;12.052;2023-04-24T06:40:04;96858.00;;;15.30
19040;BMP180;9652;49.014;12.052;2023-04-24T06:42:31;96861.00;;;15.40
19040;BMP180;9652;49.014;12.052;2023-04-24T06:44:58;96860.00;;;15.40
19040;BMP180;9652;49.014;12.052;2023-04-24T06:47:25;96853.00;;;15.50
19040;BMP180;9652;49.014;12.052;2023-04-24T06:49:52;96863.00;;;15.60
19040;BMP180;9652;49.014;12.052;2023-04-24T06:52:22;96860.00;;;15.60
19040;BMP180;9652;49.014;12.052;2023-04-24T06:54:49;96862.00;;;15.70
19040;BMP180;9652;49.014;12.052;2023-04-24T06:57:16;96853.00;;;15.80
19040;BMP180;9652;49.014;12.052;2023-04-24T06:59:43;96855.00;;;15.80
19040;BMP180;9652;49.014;12.052;2023-04-24T07:02:10;96852.00;;;15.90
19040;BMP180;9652;49.014;12.052;2023-04-24T07:04:37;96846.00;;;16.00
19040;BMP180;9652;49.014;12.052;2023-04-24T07:07:04;96854.00;;;16.00
19040;BMP180;9652;49.014;12.052;2023-04-24T07:09:33;96864.00;;;16.10
19040;BMP180;9652;49.014;12.052;2023-04-24T07:12:04;96857.00;;;16.10
19040;BMP180;9652;49.014;12.052;2023-04-24T07:14:31;96860.00;;;16.20
19040;BMP180;9652;49.014;12.052;2023-04-24T07:16:58;96865.00;;;16.20
19040;BMP180;9652;49.014;12.052;2023-04-24T07:19:25;96857.00;;;16.20
19040;BMP180;9652;49.014;12.052;2023-04-24T07:21:52;96862.00;;;16.30
19040;BMP180;9652;49.014;12.052;2023-04-24T07:24:20;96825.00;;;16.30
19040;BMP180;9652;49.014;12.052;2023-04-24T07:26:50;96855.00;;;16.40
19040;BMP180;9652;49.014;12.052;2023-04-24T07:29:18;96838.00;;;16.50
19040;BMP180;9652;49.014;12.052;2023-04-24T07:31:45;96864.00;;;16.50
19040;BMP180;9652;49.014;12.052;2023-04-24T07:34:12;96862.00;;;16.60
19040;BMP180;9652;49.014;12.052;2023-04-24T07:36:40;96854.00;;;16.70
19040;BMP180;9652;49.014;12.052;2023-04-24T07:39:07;96865.00;;;16.80
19040;BMP180;9652;49.014;12.052;2023-04-24T07:41:34;96864.00;;;16.80
19040;BMP180;9652;49.014;12.052;2023-04-24T07:44:03;96864.00;;;16.90
19040;BMP180;9652;49.014;12.052;2023-04-24T07:46:30;96860.00;;;16.90
19040;BMP180;9652;49.014;12.052;2023-04-24T07:48:58;96872.00;;;17.00
19040;BMP180;9652;49.014;12.052;2023-04-24T07:51:27;96864.00;;;17.00
19040;BMP180;9652;49.014;12.052;2023-04-24T07:53:54;96871.00;;;17.10
19040;BMP180;9652;49.014;12.052;2023-04-24T07:56:21;96871.00;;;17.20
19040;BMP180;9652;49.014;12.052;2023-04-24T07:58:48;96883.00;;;17.30
19040;BMP180;9652;49.014;12.052;2023-04-24T08:01:16;96884.00;;;17.30
19040;BMP180;9652;49.014;12.052;2023-04-24T08:03:43;96882.00;;;17.40
19040;BMP180;9652;49.014;12.052;2023-04-24T08:06:10;96881.00;;;17.40
19040;BMP180;9652;49.014;12.052;2023-04-24T08:08:38;96881.00;;;17.50
19040;BMP180;9652;49.014;12.052;2023-04-24T08:11:05;96868.00;;;17.60
19040;BMP180;9652;49.014;12.052;2023-04-24T08:13:32;96872.00;;;17.70
19040;BMP180;9652;49.014;12.052;2023-04-24T08:15:59;96874.00;;;17.80
19040;BMP180;9652;49.014;12.052;2023-04-24T08:18:27;96871.00;;;17.90
19040;BMP180;9652;49.014;12.052;2023-04-24T08:20:55;96883.00;;;18.00
19040;BMP180;9652;49.014;12.052;2023-04-24T08:23:27;96872.00;;;18.10
19040;BMP180;9652;49.014;12.052;2023-04-24T08:25:54;96875.00;;;18.20
19040;BMP180;9652;49.014;12.052;2023-04-24T08:28:22;96893.00;;;18.20
19040;BMP180;9652;49.014;12.052;2023-04-24T08:30:49;96917.00;;;18.10
19040;BMP180;9652;49.014;12.052;2023-04-24T08:33:20;96919.00;;;17.80
19040;BMP180;9652;49.014;12.052;2023-04-24T08:35:48;96913.00;;;17.30
19040;BMP180;9652;49.014;12.052;2023-04-24T08:38:16;96922.00;;;16.90
19040;BMP180;9652;49.014;12.052;2023-04-24T08:40:43;96925.00;;;16.40
19040;BMP180;9652;49.014;12.052;2023-04-24T08:43:12;96933.00;;;16.10
19040;BMP180;9652;49.014;12.052;2023-04-24T08:45:40;96926.00;;;15.80
19040;BMP180;9652;49.014;12.052;2023-04-24T08:48:08;96942.00;;;15.60
19040;BMP180;9652;49.014;12.052;2023-04-24T08:50:37;96929.00;;;15.50
19040;BMP180;9652;49.014;12.052;2023-04-24T08:53:08;96934.00;;;15.30
19040;BMP180;9652;49.014;12.052;2023-04-24T08:55:37;96930.00;;;15.30
19040;BMP180;9652;49.014;12.052;2023-04-24T08:58:04;96934.00;;;15.30
19040;BMP180;9652;49.014;12.052;2023-04-24T09:00:32;96937.00;;;15.30
19040;BMP180;9652;49.014;12.052;2023-04-24T09:03:00;96942.00;;;15.30
19040;BMP180;9652;49.014;12.052;2023-04-24T09:05:29;96932.00;;;15.30
19040;BMP180;9652;49.014;12.052;2023-04-24T09:07:57;96931.00;;;15.40
19040;BMP180;9652;49.014;12.052;2023-04-24T09:10:27;96933.00;;;15.50
19040;BMP180;9652;49.014;12.052;2023-04-24T09:12:58;96925.00;;;15.50
19040;BMP180;9652;49.014;12.052;2023-04-24T09:15:28;96928.00;;;15.50
19040;BMP180;9652;49.014;12.052;2023-04-24T09:17:55;96928.00;;;15.60
19040;BMP180;9652;49.014;12.052;2023-04-24T09:20:23;96930.00;;;15.70
19040;BMP180;9652;49.014;12.052;2023-04-24T09:22:54;96924.00;;;15.80
19040;BMP180;9652;49.014;12.052;2023-04-24T09:25:22;96917.00;;;15.90
19040;BMP180;9652;49.014;12.052;2023-04-24T09:27:53;96922.00;;;16.00
19040;BMP180;9652;49.014;12.052;2023-04-24T09:30:21;96908.00;;;16.10
19040;BMP180;9652;49.014;12.052;2023-04-24T09:32:49;96910.00;;;16.20
19040;BMP180;9652;49.014;12.052;2023-04-24T09:35:16;96927.00;;;16.20
19040;BMP180;9652;49.014;12.052;2023-04-24T09:37:47;96926.00;;;16.20
19040;BMP180;9652;49.014;12.052;2023-04-24T09:40:17;96928.00;;;16.20
19040;BMP180;9652;49.014;12.052;2023-04-24T09:42:46;96937.00;;;16.30
19040;BMP180;9652;49.014;12.052;2023-04-24T09:45:19;96947.00;;;16.40
19040;BMP180;9652;49.014;12.052;2023-04-24T09:47:51;96950.00;;;16.50
19040;BMP180;9652;49.014;12.052;2023-04-24T09:50:19;96937.00;;;16.70
19040;BMP180;9652;49.014;12.052;2023-04-24T09:52:58;96938.00;;;16.80
19040;BMP180;9652;49.014;12.052;2023-04-24T09:55:26;96941.00;;;17.00
19040;BMP180;9652;49.014;12.052;2023-04-24T09:57:56;96942.00;;;17.00
19040;BMP180;9652;49.014;12.052;2023-04-24T10:00:27;96939.00;;;16.90
19040;BMP180;9652;49.014;12.052;2023-04-24T10:02:56;96960.00;;;17.20
19040;BMP180;9652;49.014;12.052;2023-04-24T10:05:27;96959.00;;;17.20
19040;BMP180;9652;49.014;12.052;2023-04-24T10:07:58;96966.00;;;17.20
19040;BMP180;9652;49.014;12.052;2023-04-24T10:10:26;96967.00;;;17.30
19040;BMP180;9652;49.014;12.052;2023-04-24T10:12:54;96968.00;;;17.30
19040;BMP180;9652;49.014;12.052;2023-04-24T10:15:22;96969.00;;;17.30
19040;BMP180;9652;49.014;12.052;2023-04-24T10:17:51;96961.00;;;17.30
19040;BMP180;9652;49.014;12.052;2023-04-24T10:20:21;96966.00;;;17.30
19040;BMP180;9652;49.014;12.052;2023-04-24T10:22:50;96980.00;;;17.30
19040;BMP180;9652;49.014;12.052;2023-04-24T10:25:19;96980.00;;;17.30
19040;BMP180;9652;49.014;12.052;2023-04-24T10:27:48;96980.00;;;17.30
19040;BMP180;9652;49.014;12.052;2023-04-24T10:30:17;96983.00;;;17.20
19040;BMP180;9652;49.014;12.052;2023-04-24T10:32:44;96975.00;;;17.20
19040;BMP180;9652;49.014;12.052;2023-04-24T10:35:15;96971.00;;;17.20
19040;BMP180;9652;49.014;12.052;2023-04-24T10:37:45;96987.00;;;17.20
19040;BMP180;9652;49.014;12.052;2023-04-24T10:40:18;96986.00;;;17.20
19040;BMP180;9652;49.014;12.052;2023-04-24T10:42:48;96978.00;;;17.30
19040;BMP180;9652;49.014;12.052;2023-04-24T10:45:19;96976.00;;;17.30
19040;BMP180;9652;49.014;12.052;2023-04-24T10:48:08;96968.00;;;17.40
19040;BMP180;9652;49.014;12.052;2023-04-24T10:50:45;96959.00;;;17.50
19040;BMP180;9652;49.014;12.052;2023-04-24T10:53:15;96986.00;;;17.60
19040;BMP180;9652;49.014;12.052;2023-04-24T10:55:46;96976.00;;;17.70
19040;BMP180;9652;49.014;12.052;2023-04-24T10:58:14;96973.00;;;17.80
19040;BMP180;9652;49.014;12.052;2023-04-24T11:00:43;96971.00;;;17.90
19040;BMP180;9652;49.014;12.052;2023-04-24T11:03:26;96966.00;;;18.00
19040;BMP180;9652;49.014;12.052;2023-04-24T11:05:58;96976.00;;;18.10
19040;BMP180;9652;49.014;12.052;2023-04-24T11:08:28;96970.00;;;18.10
19040;BMP180;9652;49.014;12.052;2023-04-24T11:11:02;96975.00;;;18.10
19040;BMP180;9652;49.014;12.052;2023-04-24T11:14:04;96976.00;;;18.10
19040;BMP180;9652;49.014;12.052;2023-04-24T11:16:44;96949.00;;;18.10
19040;BMP180;9652;49.014;12.052;2023-04-24T11:19:21;96970.00;;;18.10
19040;BMP180;9652;49.014;12.052;2023-04-24T11:21:58;96960.00;;;18.10
19040;BMP180;9652;49.014;12.052;2023-04-24T11:24:38;96981.00;;;18.10
19040;BMP180;9652;49.014;12.052;2023-04-24T11:27:15;96985.00;;;18.00
19040;BMP180;9652;49.014;12.052;2023-04-24T11:29:46;96981.00;;;17.90
19040;BMP180;9652;49.014;12.052;2023-04-24T11:32:36;97008.00;;;17.80
19040;BMP180;9652;49.014;12.052;2023-04-24T11:35:06;97020.00;;;17.60
19040;BMP180;9652;49.014;12.052;2023-04-24T11:37:37;97019.00;;;17.30
19040;BMP180;9652;49.014;12.052;2023-04-24T11:40:06;97022.00;;;17.10
19040;BMP180;9652;49.014;12.052;2023-04-24T11:42:35;97016.00;;;16.90
19040;BMP180;9652;49.014;12.052;2023-04-24T11:45:07;96978.00;;;16.80
19040;BMP180;9652;49.014;12.052;2023-04-24T11:47:34;96992.00;;;16.80
19040;BMP180;9652;49.014;12.052;2023-04-24T11:50:04;96984.00;;;16.80
19040;BMP180;9652;49.014;12.052;2023-04-24T11:52:36;96984.00;;;16.90
19040;BMP180;9652;49.014;12.052;2023-04-24T11:55:06;96982.00;;;17.10
19040;BMP180;9652;49.014;12.052;2023-04-24T11:57:34;96999.00;;;17.20
19040;BMP180;9652;49.014;12.052;2023-04-24T12:00:04;96998.00;;;17.30
19040;BMP180;9652;49.014;12.052;2023-04-24T12:02:38;96999.00;;;17.40
19040;BMP180;9652;49.014;12.052;2023-04-24T12:05:06;97011.00;;;17.50
19040;BMP180;9652;49.014;12.052;2023-04-24T12:07:41;96977.00;;;17.60
19040;BMP180;9652;49.014;12.052;2023-04-24T12:10:09;96990.00;;;17.60
19040;BMP180;9652;49.014;12.052;2023-04-24T12:12:36;97002.00;;;17.70
19040;BMP180;9652;49.014;12.052;2023-04-24T12:15:08;96998.00;;;17.80
19040;BMP180;9652;49.014;12.052;2023-04-24T12:17:36;97006.00;;;18.00
19040;BMP180;9652;49.014;12.052;2023-04-24T12:20:05;97001.00;;;18.10
19040;BMP180;9652;49.014;12.052;2023-04-24T12:22:48;97011.00;;;18.20
19040;BMP180;9652;49.014;12.052;2023-04-24T12:25:18;97011.00;;;18.20
19040;BMP180;9652;49.014;12.052;2023-04-24T12:27:46;97009.00;;;18.30
19040;BMP180;9652;49.014;12.052;2023-04-24T12:30:16;96975.00;;;18.40
19040;BMP180;9652;49.014;12.052;2023-04-24T12:32:45;97005.00;;;18.50
19040;BMP180;9652;49.014;12.052;2023-04-24T12:35:13;97008.00;;;18.60
19040;BMP180;9652;49.014;12.052;2023-04-24T12:37:43;97003.00;;;18.70
19040;BMP180;9652;49.014;12.052;2023-04-24T12:40:14;96996.00;;;18.80
19040;BMP180;9652;49.014;12.052;2023-04-24T12:42:43;97002.00;;;19.00
19040;BMP180;9652;49.014;12.052;2023-04-24T12:45:12;96985.00;;;19.10
19040;BMP180;9652;49.014;12.052;2023-04-24T12:47:41;97007.00;;;19.20
19040;BMP180;9652;49.014;12.052;2023-04-24T12:50:09;96977.00;;;19.30
19040;BMP180;9652;49.014;12.052;2023-04-24T12:52:38;96976.00;;;19.40
19040;BMP180;9652;49.014;12.052;2023-04-24T12:55:07;96997.00;;;19.50
19040;BMP180;9652;49.014;12.052;2023-04-24T12:57:38;96999.00;;;19.60
19040;BMP180;9652;49.014;12.052;2023-04-24T13:00:08;97007.00;;;19.50
19040;BMP180;9652;49.014;12.052;2023-04-24T13:02:35;96985.00;;;19.40
19040;BMP180;9652;49.014;12.052;2023-04-24T13:05:02;97013.00;;;19.30
19040;BMP180;9652;49.014;12.052;2023-04-24T13:07:30;96999.00;;;19.20
19040;BMP180;9652;49.014;12.052;2023-04-24T13:09:57;97029.00;;;19.00
19040;BMP180;9652;49.014;12.052;2023-04-24T13:12:24;96983.00;;;18.90
19040;BMP180;9652;49.014;12.052;2023-04-24T13:14:53;97036.00;;;18.70
19040;BMP180;9652;49.014;12.052;2023-04-24T13:17:22;97034.00;;;18.60
19040;BMP180;9652;49.014;12.052;2023-04-24T13:19:50;97044.00;;;18.50
19040;BMP180;9652;49.014;12.052;2023-04-24T13:22:18;97025.00;;;18.50
19040;BMP180;9652;49.014;12.052;2023-04-24T13:24:45;97035.00;;;18.50
19040;BMP180;9652;49.014;12.052;2023-04-24T13:27:14;97041.00;;;18.60
19040;BMP180;9652;49.014;12.052;2023-04-24T13:29:42;97035.00;;;18.60
19040;BMP180;9652;49.014;12.052;2023-04-24T13:32:10;97030.00;;;18.70
19040;BMP180;9652;49.014;12.052;2023-04-24T13:34:37;97035.00;;;18.80
19040;BMP180;9652;49.014;12.052;2023-04-24T13:37:05;97037.00;;;18.90
19040;BMP180;9652;49.014;12.052;2023-04-24T13:39:33;97018.00;;;19.00
19040;BMP180;9652;49.014;12.052;2023-04-24T13:42:00;97016.00;;;19.10
19040;BMP180;9652;49.014;12.052;2023-04-24T13:44:27;97038.00;;;19.30
19040;BMP180;9652;49.014;12.052;2023-04-24T13:46:55;97044.00;;;19.50
19040;BMP180;9652;49.014;12.052;2023-04-24T13:49:26;97041.00;;;19.50
19040;BMP180;9652;49.014;12.052;2023-04-24T13:51:54;97035.00;;;19.50
19040;BMP180;9652;49.014;12.052;2023-04-24T13:54:21;97042.00;;;19.50
19040;BMP180;9652;49.014;12.052;2023-04-24T13:56:49;97045.00;;;19.40
19040;BMP180;9652;49.014;12.052;2023-04-24T13:59:16;97043.00;;;19.30
19040;BMP180;9652;49.014;12.052;2023-04-24T14:01:43;97032.00;;;19.20
19040;BMP180;9652;49.014;12.052;2023-04-24T14:04:11;97035.00;;;19.10
19040;BMP180;9652;49.014;12.052;2023-04-24T14:06:39;97047.00;;;19.10
19040;BMP180;9652;49.014;12.052;2023-04-24T14:09:06;97047.00;;;18.70
19040;BMP180;9652;49.014;12.052;2023-04-24T14:11:34;97052.00;;;19.00
19040;BMP180;9652;49.014;12.052;2023-04-24T14:14:02;97082.00;;;18.90
19040;BMP180;9652;49.014;12.052;2023-04-24T14:16:29;97056.00;;;18.80
19040;BMP180;9652;49.014;12.052;2023-04-24T14:18:57;97057.00;;;18.70
19040;BMP180;9652;49.014;12.052;2023-04-24T14:21:24;97055.00;;;18.60